createdAt,value
2022-09-12T00:02:33.317Z,18.3
2022-09-12T00:05:33.358Z,18.3
2022-09-12T00:08:33.340Z,18.3
2022-09-12T00:11:33.346Z,18.3
2022-09-12T00:14:33.351Z,18.3
2022-09-12T00:17:33.367Z,18.3
2022-09-12T00:20:33.379Z,18.3
2022-09-12T00:23:33.410Z,18.3
2022-09-12T00:26:33.394Z,18.3
2022-09-12T00:29:33.400Z,18.3
2022-09-12T00:32:33.410Z,18.3
2022-09-12T00:35:33.427Z,18.3
2022-09-12T00:38:33.434Z,18.3
2022-09-12T00:41:33.474Z,18.3
2022-09-12T00:44:33.455Z,18.3
2022-09-12T00:47:33.466Z,18.3
2022-09-12T00:50:33.469Z,18.3
2022-09-12T00:53:33.478Z,18.3
2022-09-12T00:56:33.483Z,18.3
2022-09-12T00:59:33.516Z,18.3
2022-09-12T01:02:33.505Z,18.3
2022-09-12T01:05:33.510Z,18.3
2022-09-12T01:08:33.518Z,18.3
2022-09-12T01:11:33.537Z,18.3
2022-09-12T01:14:33.545Z,18.3
2022-09-12T01:17:33.575Z,18.3
2022-09-12T01:20:33.562Z,18.3
2022-09-12T01:23:33.572Z,18.3
2022-09-12T01:26:33.579Z,18.2
2022-09-12T01:29:33.591Z,18.2
2022-09-12T01:32:33.603Z,18.2
2022-09-12T01:35:33.633Z,18.2
2022-09-12T01:38:33.615Z,18.2
2022-09-12T01:41:33.625Z,18.2
2022-09-12T01:44:33.632Z,18.2
2022-09-12T01:47:33.640Z,18.2
2022-09-12T01:50:33.656Z,18.2
2022-09-12T01:53:33.687Z,18.2
2022-09-12T01:56:33.672Z,18.2
2022-09-12T01:59:33.682Z,18.2
2022-09-12T02:02:33.689Z,18.2
2022-09-12T02:05:33.700Z,18.2
2022-09-12T02:08:33.712Z,18.2
2022-09-12T02:11:33.741Z,18.2
2022-09-12T02:14:33.732Z,18.2
2022-09-12T02:17:33.739Z,18.2
2022-09-12T02:20:49.359Z,18.1
2022-09-12T02:23:33.743Z,18.1
2022-09-12T02:26:33.747Z,18.1
2022-09-12T02:29:33.768Z,18.1
2022-09-12T02:32:33.752Z,18.1
2022-09-12T02:35:33.749Z,18.1
2022-09-12T02:38:33.751Z,18.1
2022-09-12T02:41:33.750Z,18.1
2022-09-12T02:44:33.756Z,18.1
2022-09-12T02:47:33.790Z,18.1
2022-09-12T02:50:33.753Z,18.1
2022-09-12T02:53:33.759Z,18.1
2022-09-12T02:56:33.759Z,18.1
2022-09-12T02:59:33.763Z,18.1
2022-09-12T03:02:33.774Z,18.1
2022-09-12T03:05:33.801Z,18.1
2022-09-12T03:08:33.775Z,18.1
2022-09-12T03:11:33.778Z,18.1
2022-09-12T03:14:33.775Z,18.1
2022-09-12T03:17:33.778Z,18.1
2022-09-12T03:20:33.785Z,18.1
2022-09-12T03:23:33.802Z,18.1
2022-09-12T03:26:33.774Z,18.1
2022-09-12T03:29:33.781Z,18.1
2022-09-12T03:32:33.780Z,18.1
2022-09-12T03:35:33.790Z,18.1
2022-09-12T03:38:33.782Z,18.1
2022-09-12T03:41:33.816Z,18.1
2022-09-12T03:44:33.794Z,18.1
2022-09-12T03:47:33.789Z,18.1
2022-09-12T03:50:33.795Z,18.1
2022-09-12T03:53:33.787Z,18.1
2022-09-12T03:56:33.791Z,18.1
2022-09-12T03:59:33.823Z,18.1
2022-09-12T04:02:33.830Z,18
2022-09-12T04:05:33.796Z,18
2022-09-12T04:08:33.799Z,18
2022-09-12T04:11:33.799Z,18
2022-09-12T04:14:33.801Z,18
2022-09-12T04:17:33.826Z,18
2022-09-12T04:20:33.821Z,18
2022-09-12T04:23:33.807Z,18
2022-09-12T04:26:33.810Z,18
2022-09-12T04:29:33.809Z,18
2022-09-12T04:32:33.811Z,18
2022-09-12T04:35:33.838Z,18
2022-09-12T04:38:33.812Z,18
2022-09-12T04:41:33.820Z,17.9
2022-09-12T04:44:33.811Z,17.9
2022-09-12T04:47:33.815Z,17.9
2022-09-12T04:50:33.814Z,17.9
2022-09-12T04:53:33.851Z,17.9
2022-09-12T04:56:33.820Z,17.9
2022-09-12T04:59:33.822Z,17.9
2022-09-12T05:02:33.850Z,17.9
2022-09-12T05:05:33.823Z,17.9
2022-09-12T05:08:33.826Z,17.9
2022-09-12T05:12:00.012Z,17.9
2022-09-12T05:14:33.853Z,17.9
2022-09-12T05:17:33.836Z,17.9
2022-09-12T05:20:33.832Z,17.9
2022-09-12T05:23:33.837Z,17.9
2022-09-12T05:26:33.836Z,17.9
2022-09-12T05:29:33.863Z,17.9
2022-09-12T05:32:33.842Z,17.9
2022-09-12T05:35:33.842Z,17.9
2022-09-12T05:38:33.849Z,17.9
2022-09-12T05:41:33.885Z,17.9
2022-09-12T05:44:33.851Z,17.9
2022-09-12T05:47:33.871Z,17.9
2022-09-12T05:50:33.854Z,17.9
2022-09-12T05:53:33.859Z,17.9
2022-09-12T05:56:33.997Z,17.9
2022-09-12T05:59:33.896Z,17.9
2022-09-12T06:02:33.876Z,17.9
2022-09-12T06:05:33.899Z,17.9
2022-09-12T06:08:33.868Z,17.9
2022-09-12T06:11:33.864Z,17.9
2022-09-12T06:14:33.882Z,17.8
2022-09-12T06:17:33.871Z,17.8
2022-09-12T06:20:33.876Z,17.8
2022-09-12T06:23:33.897Z,17.8
2022-09-12T06:26:33.879Z,17.8
2022-09-12T06:29:33.894Z,17.8
2022-09-12T06:32:33.887Z,17.8
2022-09-12T06:35:33.891Z,17.8
2022-09-12T06:38:33.890Z,17.8
2022-09-12T06:41:33.915Z,17.8
2022-09-12T06:44:33.901Z,17.8
2022-09-12T06:47:33.899Z,17.8
2022-09-12T06:50:33.898Z,17.8
2022-09-12T06:53:33.955Z,17.8
2022-09-12T06:56:33.902Z,17.8
2022-09-12T06:59:33.941Z,17.8
2022-09-12T07:02:33.957Z,17.8
2022-09-12T07:05:33.911Z,17.8
2022-09-12T07:08:34.003Z,17.8
2022-09-12T07:11:33.926Z,17.8
2022-09-12T07:14:33.938Z,17.8
2022-09-12T07:17:33.954Z,17.8
2022-09-12T07:20:33.931Z,17.8
2022-09-12T07:23:33.943Z,17.8
2022-09-12T07:26:33.944Z,17.8
2022-09-12T07:29:37.995Z,17.8
2022-09-12T07:32:33.950Z,17.8
2022-09-12T07:35:33.966Z,17.7
2022-09-12T07:38:33.950Z,17.7
2022-09-12T07:41:33.978Z,17.7
2022-09-12T07:44:33.954Z,17.7
2022-09-12T07:47:33.958Z,17.7
2022-09-12T07:50:33.959Z,17.7
2022-09-12T07:53:33.988Z,17.7
2022-09-12T07:56:38.337Z,17.7
2022-09-12T07:59:51.824Z,17.7
2022-09-12T08:02:34.028Z,17.7
2022-09-12T08:05:33.976Z,17.7
2022-09-12T08:08:33.975Z,17.7
2022-09-12T08:11:34.021Z,17.7
2022-09-12T08:14:33.975Z,17.7
2022-09-12T08:17:33.977Z,17.7
2022-09-12T08:20:33.977Z,17.6
2022-09-12T08:23:33.976Z,17.7
2022-09-12T08:26:33.979Z,17.6
2022-09-12T08:29:34.019Z,17.6
2022-09-12T08:32:33.977Z,17.6
2022-09-12T08:35:33.982Z,17.6
2022-09-12T08:38:33.998Z,17.6
2022-09-12T08:41:34.007Z,17.6
2022-09-12T08:44:34.008Z,17.6
2022-09-12T08:47:34.042Z,17.6
2022-09-12T08:50:34.035Z,17.6
2022-09-12T08:53:34.015Z,17.6
2022-09-12T08:56:34.018Z,17.6
2022-09-12T08:59:34.026Z,17.6
2022-09-12T09:02:34.086Z,17.6
2022-09-12T09:05:34.104Z,17.6
2022-09-12T09:08:34.030Z,17.6
2022-09-12T09:11:34.039Z,17.6
2022-09-12T09:14:34.040Z,17.6
2022-09-12T09:17:34.044Z,17.6
2022-09-12T09:20:34.056Z,17.6
2022-09-12T09:23:34.076Z,17.6
2022-09-12T09:26:35.885Z,17.6
2022-09-12T09:29:34.057Z,17.6
2022-09-12T09:32:34.061Z,17.6
2022-09-12T09:35:36.456Z,17.6
2022-09-12T09:38:34.064Z,17.6
2022-09-12T09:41:34.096Z,17.6
2022-09-12T09:44:34.078Z,17.6
2022-09-12T09:47:34.082Z,17.6
2022-09-12T09:50:34.094Z,17.6
2022-09-12T09:53:34.097Z,17.6
2022-09-12T09:56:34.097Z,17.6
2022-09-12T09:59:34.129Z,17.6
2022-09-12T10:02:34.188Z,17.6
2022-09-12T10:05:34.117Z,17.6
2022-09-12T10:08:34.114Z,17.6
2022-09-12T10:11:34.125Z,17.6
2022-09-12T10:14:34.126Z,17.6
2022-09-12T10:17:34.794Z,17.6
2022-09-12T10:20:34.134Z,17.6
2022-09-12T10:23:34.143Z,17.6
2022-09-12T10:26:34.155Z,17.6
2022-09-12T10:29:34.154Z,17.6
2022-09-12T10:32:34.161Z,17.6
2022-09-12T10:35:34.192Z,17.6
2022-09-12T10:38:34.173Z,17.6
2022-09-12T10:41:34.173Z,17.6
2022-09-12T10:44:34.179Z,17.6
2022-09-12T10:47:34.179Z,17.6
2022-09-12T10:50:34.186Z,17.6
2022-09-12T10:53:34.810Z,17.6
2022-09-12T10:56:34.199Z,17.6
2022-09-12T10:59:34.194Z,17.6
2022-09-12T11:02:34.248Z,17.6
2022-09-12T11:05:34.215Z,17.6
2022-09-12T11:08:34.221Z,17.6
2022-09-12T11:11:34.245Z,17.6
2022-09-12T11:14:34.226Z,17.6
2022-09-12T11:17:34.233Z,17.6
2022-09-12T11:20:34.236Z,17.6
2022-09-12T11:23:34.258Z,17.6
2022-09-12T11:26:34.250Z,17.6
2022-09-12T11:29:34.281Z,17.6
2022-09-12T11:32:34.265Z,17.6
2022-09-12T11:35:34.267Z,17.6
2022-09-12T11:38:34.370Z,17.6
2022-09-12T11:41:34.280Z,17.6
2022-09-12T11:44:35.960Z,17.6
2022-09-12T11:47:34.320Z,17.6
2022-09-12T11:50:34.297Z,17.6
2022-09-12T11:53:34.302Z,17.6
2022-09-12T11:56:34.315Z,17.6
2022-09-12T11:59:34.318Z,17.6
2022-09-12T12:02:34.361Z,17.6
2022-09-12T12:05:34.354Z,17.6
2022-09-12T12:08:34.336Z,17.6
2022-09-12T12:11:34.344Z,17.6
2022-09-12T12:14:34.343Z,17.6
2022-09-12T12:17:34.355Z,17.6
2022-09-12T12:20:34.373Z,17.6
2022-09-12T12:23:34.400Z,17.6
2022-09-12T12:26:34.377Z,17.6
2022-09-12T12:29:34.392Z,17.6
2022-09-12T12:32:34.391Z,17.6
2022-09-12T12:35:34.399Z,17.6
2022-09-12T12:38:34.401Z,17.6
2022-09-12T12:41:34.477Z,17.6
2022-09-12T12:44:34.419Z,17.6
2022-09-12T12:47:34.434Z,17.6
2022-09-12T12:50:34.436Z,17.7
2022-09-12T12:53:34.440Z,17.7
2022-09-12T12:56:34.443Z,17.7
2022-09-12T12:59:34.473Z,17.7
2022-09-12T13:02:34.482Z,17.7
2022-09-12T13:05:34.467Z,17.7
2022-09-12T13:08:34.467Z,17.7
2022-09-12T13:11:34.495Z,17.7
2022-09-12T13:14:34.489Z,17.7
2022-09-12T13:17:34.519Z,17.8
2022-09-12T13:20:34.503Z,17.8
2022-09-12T13:23:34.514Z,17.8
2022-09-12T13:26:34.518Z,17.8
2022-09-12T13:29:34.539Z,17.8
2022-09-12T13:32:34.535Z,17.8
2022-09-12T13:35:34.568Z,17.8
2022-09-12T13:38:34.548Z,17.8
2022-09-12T13:41:34.560Z,17.8
2022-09-12T13:44:34.774Z,17.8
2022-09-12T13:47:34.573Z,17.8
2022-09-12T13:50:34.577Z,17.8
2022-09-12T13:53:34.605Z,17.8
2022-09-12T13:56:34.602Z,17.8
2022-09-12T13:59:34.609Z,17.8
2022-09-12T14:02:34.642Z,17.8
2022-09-12T14:05:34.628Z,17.8
2022-09-12T14:08:34.643Z,17.8
2022-09-12T14:11:34.661Z,17.8
2022-09-12T14:14:34.650Z,17.8
2022-09-12T14:17:34.660Z,17.8
2022-09-12T14:20:34.660Z,17.9
2022-09-12T14:23:34.669Z,17.9
2022-09-12T14:26:34.677Z,17.9
2022-09-12T14:29:34.711Z,17.9
2022-09-12T14:32:34.694Z,17.9
2022-09-12T14:35:34.701Z,17.9
2022-09-12T14:38:34.715Z,17.9
2022-09-12T14:41:34.723Z,17.9
2022-09-12T14:44:34.722Z,17.9
2022-09-12T14:47:34.757Z,17.9
2022-09-12T14:50:34.741Z,17.9
2022-09-12T14:53:34.762Z,17.9
2022-09-12T14:56:34.749Z,17.9
2022-09-12T14:59:34.765Z,17.9
2022-09-12T15:02:34.762Z,17.9
2022-09-12T15:05:34.794Z,17.9
2022-09-12T15:08:34.772Z,17.9
2022-09-12T15:11:34.785Z,17.9
2022-09-12T15:14:34.790Z,17.9
2022-09-12T15:17:34.799Z,17.9
2022-09-12T15:20:34.811Z,18
2022-09-12T15:23:34.836Z,17.9
2022-09-12T15:26:34.814Z,18
2022-09-12T15:29:34.826Z,18
2022-09-12T15:32:34.827Z,18
2022-09-12T15:35:34.834Z,18
2022-09-12T15:38:34.839Z,18
2022-09-12T15:41:34.957Z,18
2022-09-12T15:44:34.853Z,18
2022-09-12T15:47:34.851Z,18.1
2022-09-12T15:50:34.859Z,18.1
2022-09-12T15:53:34.870Z,18.1
2022-09-12T15:56:34.873Z,18.1
2022-09-12T15:59:34.905Z,18.1
2022-09-12T16:02:34.940Z,18.1
2022-09-12T16:05:34.900Z,18.1
2022-09-12T16:08:34.910Z,18.1
2022-09-12T16:11:34.915Z,18.1
2022-09-12T16:14:34.923Z,18.1
2022-09-12T16:17:34.955Z,18.1
2022-09-12T16:20:34.938Z,18.1
2022-09-12T16:23:34.946Z,18.1
2022-09-12T16:26:34.957Z,18.1
2022-09-12T16:29:34.960Z,18.1
2022-09-12T16:32:34.962Z,18.1
2022-09-12T16:35:34.990Z,18.1
2022-09-12T16:38:34.973Z,18.1
2022-09-12T16:41:34.986Z,18.1
2022-09-12T16:44:34.991Z,18.1
2022-09-12T16:47:34.998Z,18.1
2022-09-12T16:50:35.006Z,18.1
2022-09-12T16:53:35.131Z,18.1
2022-09-12T16:56:35.018Z,18.1
2022-09-12T16:59:35.031Z,18.1
2022-09-12T17:02:35.100Z,18.1
2022-09-12T17:05:35.055Z,18.2
2022-09-12T17:08:35.061Z,18.2
2022-09-12T17:11:35.095Z,18.2
2022-09-12T17:14:35.074Z,18.2
2022-09-12T17:17:35.081Z,18.2
2022-09-12T17:20:35.093Z,18.2
2022-09-12T17:23:35.100Z,18.2
2022-09-12T17:26:35.108Z,18.2
2022-09-12T17:29:35.151Z,18.2
2022-09-12T17:32:35.122Z,18.2
2022-09-12T17:35:35.131Z,18.2
2022-09-12T17:38:35.137Z,18.2
2022-09-12T17:41:35.154Z,18.2
2022-09-12T17:44:35.155Z,18.2
2022-09-12T17:47:35.191Z,18.2
2022-09-12T17:50:38.824Z,18.3
2022-09-12T17:53:35.188Z,18.3
2022-09-12T17:56:35.206Z,18.3
2022-09-12T17:59:35.221Z,18.3
2022-09-12T18:02:35.281Z,18.3
2022-09-12T18:05:35.346Z,18.3
2022-09-12T18:08:35.249Z,18.3
2022-09-12T18:11:35.256Z,18.3
2022-09-12T18:14:35.274Z,18.3
2022-09-12T18:17:35.276Z,18.3
2022-09-12T18:20:35.291Z,18.3
2022-09-12T18:23:35.429Z,18.3
2022-09-12T18:26:35.308Z,18.3
2022-09-12T18:29:35.314Z,18.3
2022-09-12T18:32:35.327Z,18.3
2022-09-12T18:35:35.356Z,18.3
2022-09-12T18:38:35.342Z,18.3
2022-09-12T18:41:35.382Z,18.3
2022-09-12T18:44:35.369Z,18.3
2022-09-12T18:47:35.384Z,18.3
2022-09-12T18:50:35.394Z,18.3
2022-09-12T18:53:35.408Z,18.3
2022-09-12T18:56:35.416Z,18.3
2022-09-12T18:59:35.456Z,18.3
2022-09-12T19:02:35.444Z,18.3
2022-09-12T19:05:35.449Z,18.3
2022-09-12T19:08:35.462Z,18.3
2022-09-12T19:11:35.476Z,18.3
2022-09-12T19:14:35.480Z,18.3
2022-09-12T19:17:35.515Z,18.3
2022-09-12T19:20:35.501Z,18.3
2022-09-12T19:23:35.508Z,18.3
2022-09-12T19:26:35.526Z,18.3
2022-09-12T19:29:35.529Z,18.3
2022-09-12T19:32:35.536Z,18.3
2022-09-12T19:35:35.666Z,18.3
2022-09-12T19:38:35.567Z,18.3
2022-09-12T19:41:35.582Z,18.3
2022-09-12T19:44:35.590Z,18.3
2022-09-12T19:47:35.599Z,18.3
2022-09-12T19:50:35.606Z,18.3
2022-09-12T19:53:35.651Z,18.3
2022-09-12T19:56:35.634Z,18.3
2022-09-12T19:59:35.643Z,18.3
2022-09-12T20:02:35.712Z,18.3
2022-09-12T20:05:38.481Z,18.3
2022-09-12T20:08:35.675Z,18.3
2022-09-12T20:11:35.708Z,18.3
2022-09-12T20:14:35.696Z,18.3
2022-09-12T20:17:35.707Z,18.3
2022-09-12T20:20:35.718Z,18.3
2022-09-12T20:23:35.723Z,18.3
2022-09-12T20:26:35.750Z,18.3
2022-09-12T20:29:35.855Z,18.3
2022-09-12T20:32:35.756Z,18.3
2022-09-12T20:35:35.766Z,18.3
2022-09-12T20:38:35.778Z,18.3
2022-09-12T20:41:35.783Z,18.3
2022-09-12T20:44:35.804Z,18.3
2022-09-12T20:47:35.872Z,18.3
2022-09-12T20:50:35.828Z,18.3
2022-09-12T20:53:35.840Z,18.3
2022-09-12T20:56:35.851Z,18.3
2022-09-12T20:59:35.864Z,18.3
2022-09-12T21:02:35.958Z,18.3
2022-09-12T21:05:35.911Z,18.3
2022-09-12T21:08:35.906Z,18.3
2022-09-12T21:11:35.916Z,18.3
2022-09-12T21:14:35.926Z,18.3
2022-09-12T21:17:35.934Z,18.3
2022-09-12T21:20:35.949Z,18.3
2022-09-12T21:23:35.975Z,18.3
2022-09-12T21:26:35.965Z,18.3
2022-09-12T21:29:35.973Z,18.3
2022-09-12T21:32:35.986Z,18.3
2022-09-12T21:35:35.992Z,18.3
2022-09-12T21:38:36.004Z,18.3
2022-09-12T21:41:36.039Z,18.3
2022-09-12T21:44:36.026Z,18.3
2022-09-12T21:47:36.045Z,18.3
2022-09-12T21:50:36.061Z,18.3
2022-09-12T21:53:36.061Z,18.3
2022-09-12T21:56:36.082Z,18.3
2022-09-12T21:59:36.104Z,18.3
2022-09-12T22:02:36.092Z,18.3
2022-09-12T22:05:36.094Z,18.3
2022-09-12T22:08:36.114Z,18.3
2022-09-12T22:11:36.137Z,18.3
2022-09-12T22:14:36.133Z,18.3
2022-09-12T22:17:36.250Z,18.3
2022-09-12T22:20:36.147Z,18.3
2022-09-12T22:23:36.167Z,18.3
2022-09-12T22:26:36.180Z,18.3
2022-09-12T22:29:36.180Z,18.3
2022-09-12T22:32:36.185Z,18.3
2022-09-12T22:35:36.217Z,18.3
2022-09-12T22:38:36.234Z,18.3
2022-09-12T22:41:36.234Z,18.3
2022-09-12T22:44:36.220Z,18.3
2022-09-12T22:47:36.242Z,18.3
2022-09-12T22:50:36.246Z,18.3
2022-09-12T22:53:36.274Z,18.3
2022-09-12T22:56:36.262Z,18.3
2022-09-12T22:59:36.265Z,18.3
2022-09-12T23:02:36.268Z,18.3
2022-09-12T23:05:36.273Z,18.3
2022-09-12T23:08:36.284Z,18.3
2022-09-12T23:11:36.477Z,18.3
2022-09-12T23:14:36.295Z,18.3
2022-09-12T23:17:36.298Z,18.3
2022-09-12T23:20:36.303Z,18.3
2022-09-12T23:23:36.320Z,18.3
2022-09-12T23:26:36.333Z,18.3
2022-09-12T23:29:36.439Z,18.3
2022-09-12T23:32:36.338Z,18.3
2022-09-12T23:35:36.342Z,18.3
2022-09-12T23:38:36.347Z,18.3
2022-09-12T23:41:36.367Z,18.3
2022-09-12T23:44:36.362Z,18.3
2022-09-12T23:47:36.389Z,18.3
2022-09-12T23:50:36.366Z,18.3
2022-09-12T23:53:36.377Z,18.3
2022-09-12T23:56:36.552Z,18.3
2022-09-12T23:59:36.386Z,18.3
